createdAt,value
2024-05-09T00:00:40.238Z,16.33
2024-05-09T00:03:09.826Z,20.35
2024-05-09T00:05:38.401Z,17.25
2024-05-09T00:08:06.282Z,16.27
2024-05-09T00:10:37.029Z,16.40
2024-05-09T00:13:07.253Z,17.45
2024-05-09T00:15:34.909Z,18.48
2024-05-09T00:18:03.300Z,16.15
2024-05-09T00:20:37.572Z,17.15
2024-05-09T00:23:08.734Z,16.00
2024-05-09T00:25:36.056Z,18.90
2024-05-09T00:28:03.195Z,13.98
2024-05-09T00:30:34.902Z,15.88
2024-05-09T00:33:05.511Z,16.58
2024-05-09T00:35:33.498Z,16.77
2024-05-09T00:38:00.634Z,14.25
2024-05-09T00:40:37.651Z,14.95
2024-05-09T00:43:07.447Z,14.48
2024-05-09T00:48:04.894Z,14.90
2024-05-09T00:50:36.706Z,25.25
2024-05-09T00:53:06.395Z,38.25
2024-05-09T00:55:35.264Z,14.70
2024-05-09T00:58:02.897Z,15.60
2024-05-09T01:00:37.861Z,16.58
2024-05-09T01:03:07.784Z,14.63
2024-05-09T01:05:35.644Z,12.77
2024-05-09T01:08:03.375Z,11.60
2024-05-09T01:10:34.655Z,15.38
2024-05-09T01:13:07.375Z,12.02
2024-05-09T01:15:35.336Z,12.75
2024-05-09T01:18:13.138Z,12.30
2024-05-09T01:20:43.846Z,10.45
2024-05-09T01:23:14.403Z,11.70
2024-05-09T01:25:43.821Z,13.95
2024-05-09T01:28:11.018Z,12.75
2024-05-09T01:33:08.480Z,11.07
2024-05-09T01:35:37.443Z,13.50
2024-05-09T01:38:07.758Z,11.85
2024-05-09T01:40:38.779Z,12.18
2024-05-09T01:43:09.082Z,11.53
2024-05-09T01:45:37.006Z,12.77
2024-05-09T01:48:04.338Z,11.55
2024-05-09T01:53:01.763Z,13.82
2024-05-09T01:57:55.277Z,12.47
2024-05-09T02:00:33.794Z,12.90
2024-05-09T02:03:10.051Z,14.20
2024-05-09T02:05:37.838Z,14.65
2024-05-09T02:10:33.227Z,14.70
2024-05-09T02:13:00.725Z,12.80
2024-05-09T02:17:54.586Z,13.48
2024-05-09T02:20:30.266Z,14.13
2024-05-09T02:23:04.636Z,15.40
2024-05-09T02:25:32.416Z,13.80
2024-05-09T02:27:59.497Z,14.37
2024-05-09T02:30:36.168Z,16.92
2024-05-09T02:33:07.914Z,13.10
2024-05-09T02:35:35.340Z,15.63
2024-05-09T02:38:02.324Z,11.88
2024-05-09T02:40:36.470Z,11.52
2024-05-09T02:43:06.826Z,13.53
2024-05-09T02:45:33.802Z,13.33
2024-05-09T02:48:01.701Z,11.80
2024-05-09T02:50:37.002Z,12.90
2024-05-09T02:53:10.149Z,13.43
2024-05-09T02:55:41.365Z,15.40
2024-05-09T02:58:11.835Z,12.67
2024-05-09T03:00:41.726Z,11.13
2024-05-09T03:03:13.407Z,14.13
2024-05-09T03:05:43.357Z,16.03
2024-05-09T03:08:10.728Z,13.93
2024-05-09T03:10:39.074Z,11.57
2024-05-09T03:13:16.063Z,12.63
2024-05-09T03:15:44.495Z,11.93
2024-05-09T03:18:12.307Z,12.90
2024-05-09T03:20:40.084Z,13.13
2024-05-09T03:23:09.345Z,11.93
2024-05-09T03:25:37.814Z,15.73
2024-05-09T03:28:05.311Z,13.23
2024-05-09T03:30:39.927Z,12.17
2024-05-09T03:33:15.363Z,12.77
2024-05-09T03:35:45.991Z,11.70
2024-05-09T03:38:13.098Z,14.10
2024-05-09T03:43:14.313Z,12.57
2024-05-09T03:45:42.494Z,14.73
2024-05-09T03:48:09.522Z,13.67
2024-05-09T03:53:04.705Z,13.40
2024-05-09T03:55:31.921Z,13.13
2024-05-09T03:57:59.056Z,13.30
2024-05-09T04:05:35.020Z,10.93
2024-05-09T04:08:02.233Z,12.87
2024-05-09T04:13:02.367Z,11.43
2024-05-09T04:15:29.514Z,12.47
2024-05-09T04:17:56.648Z,13.85
2024-05-09T04:23:14.638Z,13.80
2024-05-09T04:25:46.269Z,12.27
2024-05-09T04:28:13.678Z,12.73
2024-05-09T04:30:41.719Z,11.88
2024-05-09T04:33:12.145Z,13.67
2024-05-09T04:35:45.002Z,14.18
2024-05-09T04:38:14.290Z,11.93
2024-05-09T04:40:41.953Z,11.75
2024-05-09T04:43:15.402Z,9.98
2024-05-09T04:45:43.425Z,9.35
2024-05-09T04:48:10.332Z,10.10
2024-05-09T04:53:10.999Z,11.88
2024-05-09T04:55:40.037Z,8.98
2024-05-09T04:58:08.864Z,8.25
2024-05-09T05:00:38.895Z,8.50
2024-05-09T05:03:14.433Z,11.73
2024-05-09T05:05:44.826Z,9.38
2024-05-09T05:08:17.656Z,9.68
2024-05-09T05:10:46.055Z,11.43
2024-05-09T05:13:20.573Z,10.05
2024-05-09T05:15:57.528Z,11.07
2024-05-09T05:18:26.500Z,10.15
2024-05-09T05:20:54.800Z,12.48
2024-05-09T05:23:22.492Z,13.18
2024-05-09T05:25:50.433Z,12.70
2024-05-09T05:28:17.432Z,12.80
2024-05-09T05:30:45.300Z,11.30
2024-05-09T05:33:14.496Z,11.98
2024-05-09T05:35:42.289Z,12.65
2024-05-09T05:38:11.636Z,14.07
2024-05-09T05:43:16.372Z,21.75
2024-05-09T05:45:46.536Z,17.98
2024-05-09T05:48:16.259Z,17.83
2024-05-09T05:50:43.928Z,15.32
2024-05-09T05:53:10.976Z,16.27
2024-05-09T05:58:10.541Z,20.25
2024-05-09T06:00:39.495Z,23.08
2024-05-09T06:03:12.299Z,17.50
2024-05-09T06:05:40.220Z,14.50
2024-05-09T06:08:07.830Z,18.67
2024-05-09T06:13:10.596Z,19.75
2024-05-09T06:15:37.503Z,13.70
2024-05-09T06:18:08.870Z,17.58
2024-05-09T06:20:38.029Z,17.05
2024-05-09T06:23:09.713Z,14.90
2024-05-09T06:25:38.000Z,15.52
2024-05-09T06:28:05.264Z,16.98
2024-05-09T06:30:39.342Z,15.38
2024-05-09T06:33:10.674Z,13.48
2024-05-09T06:35:39.526Z,15.45
2024-05-09T06:38:09.247Z,14.50
2024-05-09T06:40:39.035Z,12.35
2024-05-09T06:43:18.928Z,16.27
2024-05-09T06:45:54.055Z,12.70
2024-05-09T06:48:22.827Z,12.80
2024-05-09T06:50:50.373Z,15.30
2024-05-09T06:53:20.434Z,10.98
2024-05-09T06:55:47.419Z,12.35
2024-05-09T06:58:16.414Z,15.30
2024-05-09T07:00:43.545Z,12.02
2024-05-09T07:05:39.729Z,12.18
2024-05-09T07:08:06.899Z,14.15
2024-05-09T07:10:36.300Z,10.88
2024-05-09T07:13:08.419Z,13.80
2024-05-09T07:15:35.226Z,12.65
2024-05-09T07:18:08.514Z,15.82
2024-05-09T07:20:35.425Z,16.40
2024-05-09T07:23:03.227Z,14.95
2024-05-09T07:25:30.607Z,12.18
2024-05-09T07:27:57.496Z,11.63
2024-05-09T07:30:32.560Z,13.43
2024-05-09T07:33:02.313Z,9.35
2024-05-09T07:35:29.794Z,13.65
2024-05-09T07:40:33.324Z,12.35
2024-05-09T07:43:13.380Z,13.35
2024-05-09T07:45:49.906Z,14.43
2024-05-09T07:53:39.424Z,13.00
2024-05-09T07:56:10.226Z,15.38
2024-05-09T07:58:38.838Z,14.23
2024-05-09T08:01:05.970Z,14.43
2024-05-09T08:03:34.282Z,12.82
2024-05-09T08:06:01.455Z,15.05
2024-05-09T08:10:55.030Z,13.80
2024-05-09T08:13:22.087Z,13.55
2024-05-09T08:18:15.995Z,13.73
2024-05-09T08:23:11.207Z,12.63
2024-05-09T08:25:38.767Z,13.18
2024-05-09T08:28:06.101Z,14.00
2024-05-09T08:30:36.953Z,13.52
2024-05-09T08:33:06.382Z,11.77
2024-05-09T08:35:34.384Z,14.32
2024-05-09T08:38:06.055Z,11.65
2024-05-09T08:40:36.175Z,10.45
2024-05-09T08:43:10.295Z,11.23
2024-05-09T08:45:43.141Z,10.90
2024-05-09T08:48:12.686Z,9.32
2024-05-09T08:50:43.048Z,12.45
2024-05-09T08:53:10.139Z,9.73
2024-05-09T08:58:14.028Z,9.85
2024-05-09T09:00:43.207Z,12.82
2024-05-09T09:03:15.130Z,12.60
2024-05-09T09:05:59.296Z,11.75
2024-05-09T09:08:26.376Z,9.23
2024-05-09T09:15:49.431Z,11.65
2024-05-09T09:18:17.487Z,12.55
2024-05-09T09:20:45.272Z,10.35
2024-05-09T09:25:42.348Z,9.77
2024-05-09T09:28:09.750Z,9.85
2024-05-09T09:30:40.954Z,9.88
2024-05-09T09:33:12.003Z,12.05
2024-05-09T09:35:40.546Z,10.10
2024-05-09T09:38:10.088Z,10.48
2024-05-09T09:40:42.992Z,12.32
2024-05-09T09:43:21.958Z,10.43
2024-05-09T09:45:52.639Z,9.55
2024-05-09T09:48:21.284Z,12.48
2024-05-09T09:50:54.409Z,9.23
2024-05-09T09:53:23.005Z,10.57
2024-05-09T09:55:51.217Z,12.15
2024-05-09T09:58:18.367Z,12.30
2024-05-09T10:00:45.612Z,10.85
2024-05-09T10:03:13.060Z,11.35
2024-05-09T10:05:43.251Z,12.40
2024-05-09T10:08:12.951Z,11.52
2024-05-09T10:10:40.322Z,10.25
2024-05-09T10:13:08.475Z,8.68
2024-05-09T10:15:51.716Z,9.13
2024-05-09T10:18:27.142Z,9.65
2024-05-09T10:20:56.391Z,8.18
2024-05-09T10:26:00.156Z,8.18
2024-05-09T10:28:28.466Z,9.57
2024-05-09T10:31:15.887Z,8.55
2024-05-09T10:33:52.021Z,17.48
2024-05-09T10:36:21.732Z,14.32
2024-05-09T10:38:50.067Z,11.20
2024-05-09T10:41:17.585Z,9.05
2024-05-09T10:43:44.383Z,9.20
2024-05-09T10:46:11.948Z,7.63
2024-05-09T10:48:41.612Z,8.07
2024-05-09T10:51:09.221Z,8.75
2024-05-09T10:53:43.584Z,8.52
2024-05-09T10:56:11.450Z,11.35
2024-05-09T10:58:38.181Z,10.02
2024-05-09T11:01:07.068Z,15.25
2024-05-09T11:03:35.324Z,9.90
2024-05-09T11:06:02.845Z,7.10
2024-05-09T11:08:32.287Z,9.90
2024-05-09T11:11:00.161Z,12.25
2024-05-09T11:13:31.046Z,9.73
2024-05-09T11:15:59.569Z,9.65
2024-05-09T11:18:30.807Z,9.52
2024-05-09T11:21:00.740Z,9.88
2024-05-09T11:25:56.081Z,11.48
2024-05-09T11:28:23.486Z,7.40
2024-05-09T11:30:51.061Z,8.70
2024-05-09T11:33:21.782Z,7.68
2024-05-09T11:35:48.753Z,6.32
2024-05-09T11:38:15.727Z,9.07
2024-05-09T11:43:09.554Z,9.55
2024-05-09T11:45:36.350Z,12.15
2024-05-09T11:48:04.007Z,10.60
2024-05-09T11:50:35.302Z,12.75
2024-05-09T11:53:03.033Z,13.35
2024-05-09T11:55:30.756Z,10.85
2024-05-09T11:57:57.911Z,10.60
2024-05-09T12:00:33.199Z,13.80
2024-05-09T12:03:05.413Z,12.10
2024-05-09T12:05:33.782Z,10.50
2024-05-09T12:08:01.957Z,13.02
2024-05-09T12:10:33.562Z,12.63
2024-05-09T12:13:04.926Z,12.55
2024-05-09T12:15:33.995Z,9.18
2024-05-09T12:18:03.596Z,13.30
2024-05-09T12:20:36.828Z,10.15
2024-05-09T12:23:10.285Z,10.63
2024-05-09T12:25:39.170Z,10.88
2024-05-09T12:28:07.294Z,12.77
2024-05-09T12:30:38.565Z,8.82
2024-05-09T12:33:08.847Z,10.18
2024-05-09T12:35:36.247Z,10.48
2024-05-09T12:40:35.936Z,9.20
2024-05-09T12:43:09.294Z,10.80
2024-05-09T12:45:37.731Z,9.27
2024-05-09T12:48:07.494Z,7.55
2024-05-09T12:50:35.017Z,7.30
2024-05-09T12:53:03.657Z,10.43
2024-05-09T12:55:43.807Z,7.70
2024-05-09T12:58:19.144Z,9.77
2024-05-09T13:00:46.614Z,9.13
2024-05-09T13:03:13.803Z,8.55
2024-05-09T13:05:46.826Z,6.70
2024-05-09T13:08:13.937Z,10.55
2024-05-09T13:10:41.320Z,8.25
2024-05-09T13:13:11.690Z,6.53
2024-05-09T13:15:38.959Z,6.93
2024-05-09T13:18:06.948Z,7.18
2024-05-09T13:20:35.698Z,7.88
2024-05-09T13:23:05.159Z,5.80
2024-05-09T13:25:34.491Z,6.32
2024-05-09T13:28:01.997Z,8.00
2024-05-09T13:30:37.715Z,4.60
2024-05-09T13:33:08.746Z,5.43
2024-05-09T13:35:36.212Z,7.65
2024-05-09T13:38:04.831Z,5.57
2024-05-09T13:40:34.857Z,4.75
2024-05-09T13:43:06.413Z,4.75
2024-05-09T13:45:33.768Z,6.15
2024-05-09T13:48:02.562Z,7.10
2024-05-09T13:50:34.517Z,5.43
2024-05-09T13:53:06.008Z,4.68
2024-05-09T13:55:34.012Z,6.13
2024-05-09T13:58:01.346Z,6.22
2024-05-09T14:00:41.668Z,6.10
2024-05-09T14:03:14.238Z,8.05
2024-05-09T14:05:41.483Z,5.85
2024-05-09T14:08:08.730Z,7.00
2024-05-09T14:10:36.051Z,6.75
2024-05-09T14:13:03.269Z,6.50
2024-05-09T14:15:30.398Z,7.22
2024-05-09T14:17:57.323Z,7.32
2024-05-09T14:23:01.827Z,7.97
2024-05-09T14:25:30.480Z,9.68
2024-05-09T14:27:58.138Z,10.25
2024-05-09T14:30:34.070Z,6.88
2024-05-09T14:33:05.453Z,7.38
2024-05-09T14:35:32.961Z,7.30
2024-05-09T14:37:59.790Z,8.10
2024-05-09T14:43:09.757Z,9.95
2024-05-09T14:45:36.552Z,6.80
2024-05-09T14:48:04.094Z,7.85
2024-05-09T14:50:36.629Z,9.00
2024-05-09T14:53:07.510Z,8.57
2024-05-09T14:55:37.339Z,6.07
2024-05-09T14:58:08.640Z,9.25
2024-05-09T15:00:47.700Z,8.13
2024-05-09T15:03:21.534Z,10.30
2024-05-09T15:05:49.149Z,8.27
2024-05-09T15:08:18.129Z,8.07
2024-05-09T15:10:45.478Z,9.70
2024-05-09T15:13:15.442Z,9.05
2024-05-09T15:15:43.355Z,8.57
2024-05-09T15:20:37.892Z,12.25
2024-05-09T15:23:06.391Z,10.48
2024-05-09T15:25:35.149Z,11.38
2024-05-09T15:28:02.214Z,13.07
2024-05-09T15:30:32.138Z,14.57
2024-05-09T15:33:03.843Z,10.55
2024-05-09T15:35:31.856Z,13.07
2024-05-09T15:37:59.010Z,12.55
2024-05-09T15:40:35.173Z,14.90
2024-05-09T15:43:07.491Z,15.02
2024-05-09T15:45:34.907Z,15.75
2024-05-09T15:48:03.116Z,16.83
2024-05-09T15:50:37.184Z,14.27
2024-05-09T15:53:08.561Z,13.40
2024-05-09T15:55:36.317Z,13.27
2024-05-09T15:58:04.571Z,15.55
2024-05-09T16:00:37.783Z,15.27
2024-05-09T16:03:09.408Z,15.45
2024-05-09T16:05:37.459Z,14.35
2024-05-09T16:08:05.504Z,15.20
2024-05-09T16:10:34.248Z,13.70
2024-05-09T16:13:02.487Z,17.13
2024-05-09T16:15:30.286Z,15.15
2024-05-09T16:17:57.388Z,12.80
2024-05-09T16:22:54.559Z,13.77
2024-05-09T16:25:21.397Z,12.40
2024-05-09T16:27:50.848Z,12.20
2024-05-09T16:30:24.838Z,14.05
2024-05-09T16:32:58.564Z,13.60
2024-05-09T16:35:25.401Z,13.45
2024-05-09T16:37:52.283Z,12.80
2024-05-09T16:40:25.838Z,14.00
2024-05-09T16:43:03.558Z,10.55
2024-05-09T16:45:30.737Z,10.57
2024-05-09T16:50:29.526Z,12.65
2024-05-09T16:52:59.954Z,10.95
2024-05-09T16:55:27.349Z,10.38
2024-05-09T16:57:55.018Z,10.00
2024-05-09T17:00:31.769Z,11.52
2024-05-09T17:03:07.453Z,11.27
2024-05-09T17:05:34.899Z,9.85
2024-05-09T17:08:02.742Z,9.77
2024-05-09T17:10:33.409Z,9.30
2024-05-09T17:13:03.223Z,12.18
2024-05-09T17:15:32.023Z,9.02
2024-05-09T17:18:02.330Z,9.43
2024-05-09T17:20:34.073Z,9.68
2024-05-09T17:23:04.964Z,10.32
2024-05-09T17:25:32.521Z,8.00
2024-05-09T17:28:06.369Z,9.43
2024-05-09T17:30:36.954Z,12.40
2024-05-09T17:33:07.482Z,8.82
2024-05-09T17:35:35.696Z,10.40
2024-05-09T17:38:02.605Z,9.25
2024-05-09T17:40:33.784Z,11.23
2024-05-09T17:43:04.425Z,10.55
2024-05-09T17:45:32.171Z,10.10
2024-05-09T17:47:59.979Z,12.95
2024-05-09T17:50:34.842Z,11.40
2024-05-09T17:53:04.341Z,11.45
2024-05-09T17:55:31.429Z,16.40
2024-05-09T18:00:36.336Z,16.10
2024-05-09T18:03:07.287Z,15.18
2024-05-09T18:05:36.495Z,13.63
2024-05-09T18:08:04.045Z,17.15
2024-05-09T18:10:36.647Z,18.55
2024-05-09T18:13:07.202Z,16.20
2024-05-09T18:15:34.791Z,13.65
2024-05-09T18:18:02.677Z,14.38
2024-05-09T18:20:38.131Z,13.18
2024-05-09T18:23:10.970Z,12.75
2024-05-09T18:25:38.045Z,10.60
2024-05-09T18:30:35.517Z,10.80
2024-05-09T18:33:06.406Z,9.70
2024-05-09T18:35:34.785Z,12.90
2024-05-09T18:38:01.658Z,11.73
2024-05-09T18:40:34.153Z,9.13
2024-05-09T18:43:06.141Z,13.80
2024-05-09T18:45:34.689Z,13.63
2024-05-09T18:50:34.919Z,11.50
2024-05-09T18:53:12.915Z,9.95
2024-05-09T18:55:41.329Z,9.93
2024-05-09T18:58:08.247Z,11.18
2024-05-09T19:03:10.287Z,10.38
2024-05-09T19:05:40.272Z,12.05
2024-05-09T19:08:07.818Z,9.65
2024-05-09T19:10:36.078Z,12.43
2024-05-09T19:13:08.270Z,11.88
2024-05-09T19:15:39.358Z,9.45
2024-05-09T19:18:07.171Z,13.00
2024-05-09T19:20:36.081Z,13.77
2024-05-09T19:23:04.703Z,13.50
2024-05-09T19:25:32.271Z,13.80
2024-05-09T19:27:59.861Z,12.07
2024-05-09T19:30:36.370Z,13.63
2024-05-09T19:33:07.566Z,14.80
2024-05-09T19:38:01.354Z,11.27
2024-05-09T19:40:32.142Z,14.10
2024-05-09T19:43:02.014Z,12.20
2024-05-09T19:45:29.484Z,11.40
2024-05-09T19:47:56.736Z,13.27
2024-05-09T19:50:32.226Z,13.02
2024-05-09T19:53:06.939Z,12.13
2024-05-09T19:55:33.937Z,11.35
2024-05-09T19:58:04.907Z,11.60
2024-05-09T20:00:39.758Z,11.32
2024-05-09T20:03:09.283Z,10.95
2024-05-09T20:05:37.153Z,10.70
2024-05-09T20:08:04.766Z,11.05
2024-05-09T20:13:02.854Z,11.98
2024-05-09T20:15:30.742Z,10.45
2024-05-09T20:17:57.808Z,9.13
2024-05-09T20:20:33.597Z,11.13
2024-05-09T20:23:08.781Z,11.80
2024-05-09T20:25:35.633Z,11.90
2024-05-09T20:28:02.674Z,11.38
2024-05-09T20:30:32.852Z,10.32
2024-05-09T20:33:07.224Z,9.73
2024-05-09T20:35:35.497Z,12.07
2024-05-09T20:38:03.305Z,10.75
2024-05-09T20:40:34.771Z,11.00
2024-05-09T20:43:05.259Z,12.48
2024-05-09T20:45:32.284Z,10.85
2024-05-09T20:47:59.233Z,9.68
2024-05-09T20:50:36.275Z,13.20
2024-05-09T20:53:09.008Z,12.20
2024-05-09T20:55:36.015Z,12.80
2024-05-09T20:58:02.890Z,13.95
2024-05-09T21:00:37.663Z,13.32
2024-05-09T21:03:08.176Z,11.93
2024-05-09T21:08:05.219Z,14.40
2024-05-09T21:10:33.835Z,13.40
2024-05-09T21:13:03.116Z,13.77
2024-05-09T21:15:30.816Z,12.02
2024-05-09T21:20:30.946Z,13.05
2024-05-09T21:22:59.510Z,12.27
2024-05-09T21:27:53.329Z,14.75
2024-05-09T21:33:06.031Z,16.48
2024-05-09T21:35:32.859Z,16.45
2024-05-09T21:37:59.696Z,14.82
2024-05-09T21:40:33.467Z,14.80
2024-05-09T21:43:02.487Z,14.60
2024-05-09T21:45:29.506Z,15.35
2024-05-09T21:50:31.606Z,15.95
2024-05-09T21:53:05.528Z,13.88
2024-05-09T21:55:32.283Z,16.52
2024-05-09T21:57:59.028Z,16.52
2024-05-09T22:00:34.470Z,16.05
2024-05-09T22:03:05.206Z,15.55
2024-05-09T22:05:32.231Z,14.30
2024-05-09T22:10:31.156Z,14.23
2024-05-09T22:13:01.700Z,15.40
2024-05-09T22:15:28.630Z,13.43
2024-05-09T22:17:56.446Z,14.30
2024-05-09T22:20:32.868Z,14.15
2024-05-09T22:23:04.371Z,15.10
2024-05-09T22:25:32.244Z,16.02
2024-05-09T22:28:00.598Z,17.00
2024-05-09T22:30:34.926Z,15.35
2024-05-09T22:33:06.447Z,16.58
2024-05-09T22:35:33.502Z,18.35
2024-05-09T22:38:00.410Z,17.38
2024-05-09T22:42:56.865Z,14.23
2024-05-09T22:45:23.656Z,19.50
2024-05-09T22:47:50.488Z,15.85
2024-05-09T22:50:26.226Z,15.05
2024-05-09T22:52:54.180Z,17.83
2024-05-09T22:55:21.015Z,14.13
2024-05-09T22:57:47.847Z,17.08
2024-05-09T23:00:16.085Z,15.65
2024-05-09T23:02:43.202Z,13.80
2024-05-09T23:05:10.386Z,18.02
2024-05-09T23:07:37.502Z,13.85
2024-05-09T23:10:10.825Z,18.88
2024-05-09T23:12:40.113Z,16.10
2024-05-09T23:15:07.196Z,17.85
2024-05-09T23:17:34.031Z,16.98
2024-05-09T23:20:00.849Z,20.08
2024-05-09T23:22:27.656Z,14.77
2024-05-09T23:24:54.465Z,15.75
2024-05-09T23:27:21.493Z,17.20
2024-05-09T23:32:14.988Z,15.82
2024-05-09T23:34:41.794Z,19.73
2024-05-09T23:37:10.803Z,20.35
2024-05-09T23:39:37.708Z,15.15
2024-05-09T23:42:04.814Z,19.02
2024-05-09T23:46:59.518Z,16.80
2024-05-09T23:49:26.331Z,17.50
2024-05-09T23:51:53.129Z,21.70
2024-05-09T23:54:19.928Z,16.80
2024-05-09T23:56:46.720Z,24.13
2024-05-09T23:59:13.475Z,18.05
